sensor_id;sensor_type;location;lat;lon;timestamp;P1;durP1;ratioP1;P2;durP2;ratioP2
24259;SDS011;12384;48.112;18.418;2023-02-28T00:01:46;15.93;;;14.27;;
24259;SDS011;12384;48.112;18.418;2023-02-28T00:04:15;16.27;;;14.57;;
24259;SDS011;12384;48.112;18.418;2023-02-28T00:09:28;26.83;;;19.10;;
24259;SDS011;12384;48.112;18.418;2023-02-28T00:11:56;20.43;;;17.00;;
24259;SDS011;12384;48.112;18.418;2023-02-28T00:14:25;48.33;;;27.77;;
24259;SDS011;12384;48.112;18.418;2023-02-28T00:16:53;42.67;;;24.60;;
24259;SDS011;12384;48.112;18.418;2023-02-28T00:19:21;36.70;;;23.17;;
24259;SDS011;12384;48.112;18.418;2023-02-28T00:21:50;25.63;;;18.70;;
24259;SDS011;12384;48.112;18.418;2023-02-28T00:24:19;28.93;;;18.63;;
24259;SDS011;12384;48.112;18.418;2023-02-28T00:26:48;28.43;;;20.23;;
24259;SDS011;12384;48.112;18.418;2023-02-28T00:29:17;19.13;;;16.70;;
24259;SDS011;12384;48.112;18.418;2023-02-28T00:31:45;20.80;;;16.17;;
24259;SDS011;12384;48.112;18.418;2023-02-28T00:34:14;21.40;;;17.43;;
24259;SDS011;12384;48.112;18.418;2023-02-28T00:36:42;32.00;;;21.67;;
24259;SDS011;12384;48.112;18.418;2023-02-28T00:39:12;19.10;;;17.07;;
24259;SDS011;12384;48.112;18.418;2023-02-28T00:41:42;17.37;;;15.57;;
24259;SDS011;12384;48.112;18.418;2023-02-28T00:44:13;16.13;;;14.50;;
24259;SDS011;12384;48.112;18.418;2023-02-28T00:46:42;14.87;;;13.37;;
24259;SDS011;12384;48.112;18.418;2023-02-28T00:49:11;14.93;;;13.53;;
24259;SDS011;12384;48.112;18.418;2023-02-28T00:51:41;14.33;;;13.13;;
24259;SDS011;12384;48.112;18.418;2023-02-28T00:54:09;14.00;;;12.77;;
24259;SDS011;12384;48.112;18.418;2023-02-28T00:56:37;15.17;;;13.80;;
24259;SDS011;12384;48.112;18.418;2023-02-28T00:59:07;14.07;;;12.87;;
24259;SDS011;12384;48.112;18.418;2023-02-28T01:01:37;14.20;;;12.93;;
24259;SDS011;12384;48.112;18.418;2023-02-28T01:04:06;14.57;;;13.17;;
24259;SDS011;12384;48.112;18.418;2023-02-28T01:06:35;14.37;;;12.97;;
24259;SDS011;12384;48.112;18.418;2023-02-28T01:09:04;14.00;;;12.70;;
24259;SDS011;12384;48.112;18.418;2023-02-28T01:11:34;14.13;;;12.87;;
24259;SDS011;12384;48.112;18.418;2023-02-28T01:14:03;13.20;;;12.20;;
24259;SDS011;12384;48.112;18.418;2023-02-28T01:16:32;14.10;;;12.87;;
24259;SDS011;12384;48.112;18.418;2023-02-28T01:19:02;15.90;;;14.37;;
24259;SDS011;12384;48.112;18.418;2023-02-28T01:21:31;16.47;;;14.73;;
24259;SDS011;12384;48.112;18.418;2023-02-28T01:24:01;16.17;;;14.63;;
24259;SDS011;12384;48.112;18.418;2023-02-28T01:26:30;15.50;;;14.10;;
24259;SDS011;12384;48.112;18.418;2023-02-28T01:28:59;16.97;;;15.27;;
24259;SDS011;12384;48.112;18.418;2023-02-28T01:31:27;14.60;;;13.10;;
24259;SDS011;12384;48.112;18.418;2023-02-28T01:33:58;14.13;;;12.83;;
24259;SDS011;12384;48.112;18.418;2023-02-28T01:36:27;12.60;;;11.60;;
24259;SDS011;12384;48.112;18.418;2023-02-28T01:38:56;14.73;;;13.43;;
24259;SDS011;12384;48.112;18.418;2023-02-28T01:41:26;14.50;;;13.20;;
24259;SDS011;12384;48.112;18.418;2023-02-28T01:44:00;14.70;;;13.40;;
24259;SDS011;12384;48.112;18.418;2023-02-28T01:46:32;15.03;;;13.63;;
24259;SDS011;12384;48.112;18.418;2023-02-28T01:49:05;14.47;;;13.20;;
24259;SDS011;12384;48.112;18.418;2023-02-28T01:51:38;14.17;;;12.97;;
24259;SDS011;12384;48.112;18.418;2023-02-28T01:54:12;13.43;;;12.20;;
24259;SDS011;12384;48.112;18.418;2023-02-28T01:56:46;13.70;;;12.50;;
24259;SDS011;12384;48.112;18.418;2023-02-28T01:59:20;14.00;;;12.80;;
24259;SDS011;12384;48.112;18.418;2023-02-28T02:01:52;15.07;;;13.77;;
24259;SDS011;12384;48.112;18.418;2023-02-28T02:04:22;13.80;;;12.67;;
24259;SDS011;12384;48.112;18.418;2023-02-28T02:06:54;14.23;;;13.03;;
24259;SDS011;12384;48.112;18.418;2023-02-28T02:09:23;14.23;;;12.97;;
24259;SDS011;12384;48.112;18.418;2023-02-28T02:11:51;14.53;;;13.23;;
24259;SDS011;12384;48.112;18.418;2023-02-28T02:14:35;13.83;;;12.50;;
24259;SDS011;12384;48.112;18.418;2023-02-28T02:17:19;15.17;;;13.77;;
24259;SDS011;12384;48.112;18.418;2023-02-28T02:23:03;14.63;;;13.23;;
24259;SDS011;12384;48.112;18.418;2023-02-28T02:25:47;14.03;;;12.50;;
24259;SDS011;12384;48.112;18.418;2023-02-28T02:28:22;14.00;;;12.60;;
24259;SDS011;12384;48.112;18.418;2023-02-28T02:31:09;14.80;;;13.40;;
24259;SDS011;12384;48.112;18.418;2023-02-28T02:37:00;13.77;;;12.57;;
24259;SDS011;12384;48.112;18.418;2023-02-28T02:39:40;14.63;;;13.23;;
24259;SDS011;12384;48.112;18.418;2023-02-28T02:42:16;14.37;;;12.87;;
24259;SDS011;12384;48.112;18.418;2023-02-28T02:44:53;15.70;;;14.10;;
24259;SDS011;12384;48.112;18.418;2023-02-28T02:47:29;14.10;;;12.87;;
24259;SDS011;12384;48.112;18.418;2023-02-28T02:50:02;15.17;;;13.87;;
24259;SDS011;12384;48.112;18.418;2023-02-28T02:52:36;14.93;;;13.50;;
24259;SDS011;12384;48.112;18.418;2023-02-28T02:55:09;15.93;;;12.80;;
24259;SDS011;12384;48.112;18.418;2023-02-28T02:57:42;13.90;;;12.53;;
24259;SDS011;12384;48.112;18.418;2023-02-28T03:00:14;12.87;;;11.77;;
24259;SDS011;12384;48.112;18.418;2023-02-28T03:02:46;13.83;;;12.63;;
24259;SDS011;12384;48.112;18.418;2023-02-28T03:05:18;13.77;;;12.53;;
24259;SDS011;12384;48.112;18.418;2023-02-28T03:07:50;13.77;;;12.50;;
24259;SDS011;12384;48.112;18.418;2023-02-28T03:10:28;16.63;;;14.43;;
24259;SDS011;12384;48.112;18.418;2023-02-28T03:13:15;15.83;;;14.20;;
24259;SDS011;12384;48.112;18.418;2023-02-28T03:16:17;17.70;;;14.37;;
24259;SDS011;12384;48.112;18.418;2023-02-28T03:19:00;15.27;;;13.60;;
24259;SDS011;12384;48.112;18.418;2023-02-28T03:21:39;16.97;;;14.63;;
24259;SDS011;12384;48.112;18.418;2023-02-28T03:24:14;14.33;;;12.80;;
24259;SDS011;12384;48.112;18.418;2023-02-28T03:26:50;15.13;;;13.20;;
24259;SDS011;12384;48.112;18.418;2023-02-28T03:29:28;14.30;;;12.90;;
24259;SDS011;12384;48.112;18.418;2023-02-28T03:32:03;15.33;;;13.43;;
24259;SDS011;12384;48.112;18.418;2023-02-28T03:34:42;15.07;;;13.67;;
24259;SDS011;12384;48.112;18.418;2023-02-28T03:37:16;14.83;;;13.40;;
24259;SDS011;12384;48.112;18.418;2023-02-28T03:39:51;15.10;;;13.57;;
24259;SDS011;12384;48.112;18.418;2023-02-28T03:42:25;15.03;;;13.53;;
24259;SDS011;12384;48.112;18.418;2023-02-28T03:44:57;15.30;;;13.70;;
24259;SDS011;12384;48.112;18.418;2023-02-28T03:47:28;14.50;;;13.10;;
24259;SDS011;12384;48.112;18.418;2023-02-28T03:50:01;14.33;;;12.93;;
24259;SDS011;12384;48.112;18.418;2023-02-28T03:52:36;13.70;;;12.30;;
24259;SDS011;12384;48.112;18.418;2023-02-28T03:55:12;14.90;;;13.43;;
24259;SDS011;12384;48.112;18.418;2023-02-28T03:57:44;15.97;;;14.47;;
24259;SDS011;12384;48.112;18.418;2023-02-28T04:00:25;15.70;;;14.10;;
24259;SDS011;12384;48.112;18.418;2023-02-28T04:02:56;15.10;;;13.50;;
24259;SDS011;12384;48.112;18.418;2023-02-28T04:05:25;14.93;;;13.53;;
24259;SDS011;12384;48.112;18.418;2023-02-28T04:07:54;15.43;;;14.03;;
24259;SDS011;12384;48.112;18.418;2023-02-28T04:10:33;15.47;;;13.93;;
24259;SDS011;12384;48.112;18.418;2023-02-28T04:13:01;14.23;;;12.93;;
24259;SDS011;12384;48.112;18.418;2023-02-28T04:15:29;14.77;;;13.47;;
24259;SDS011;12384;48.112;18.418;2023-02-28T04:17:58;14.40;;;13.00;;
24259;SDS011;12384;48.112;18.418;2023-02-28T04:20:27;15.40;;;13.90;;
24259;SDS011;12384;48.112;18.418;2023-02-28T04:22:55;15.77;;;14.37;;
24259;SDS011;12384;48.112;18.418;2023-02-28T04:25:23;14.67;;;13.23;;
24259;SDS011;12384;48.112;18.418;2023-02-28T04:27:54;14.80;;;13.40;;
24259;SDS011;12384;48.112;18.418;2023-02-28T04:30:22;15.33;;;13.73;;
24259;SDS011;12384;48.112;18.418;2023-02-28T04:32:51;14.77;;;13.47;;
24259;SDS011;12384;48.112;18.418;2023-02-28T04:35:19;15.33;;;13.93;;
24259;SDS011;12384;48.112;18.418;2023-02-28T04:37:48;14.40;;;13.00;;
24259;SDS011;12384;48.112;18.418;2023-02-28T04:40:16;14.27;;;12.90;;
24259;SDS011;12384;48.112;18.418;2023-02-28T04:42:45;13.97;;;12.80;;
24259;SDS011;12384;48.112;18.418;2023-02-28T04:45:14;15.37;;;13.87;;
24259;SDS011;12384;48.112;18.418;2023-02-28T04:47:43;14.37;;;13.00;;
24259;SDS011;12384;48.112;18.418;2023-02-28T04:50:12;14.33;;;13.03;;
24259;SDS011;12384;48.112;18.418;2023-02-28T04:52:40;14.40;;;13.20;;
24259;SDS011;12384;48.112;18.418;2023-02-28T04:55:09;14.73;;;13.37;;
24259;SDS011;12384;48.112;18.418;2023-02-28T04:57:37;15.37;;;13.97;;
24259;SDS011;12384;48.112;18.418;2023-02-28T05:00:06;15.17;;;13.87;;
24259;SDS011;12384;48.112;18.418;2023-02-28T05:02:39;15.60;;;14.20;;
24259;SDS011;12384;48.112;18.418;2023-02-28T05:05:07;15.07;;;13.77;;
24259;SDS011;12384;48.112;18.418;2023-02-28T05:07:36;14.37;;;13.03;;
24259;SDS011;12384;48.112;18.418;2023-02-28T05:10:05;14.43;;;13.07;;
24259;SDS011;12384;48.112;18.418;2023-02-28T05:12:33;15.97;;;14.47;;
24259;SDS011;12384;48.112;18.418;2023-02-28T05:15:02;15.30;;;13.97;;
24259;SDS011;12384;48.112;18.418;2023-02-28T05:17:31;14.57;;;13.07;;
24259;SDS011;12384;48.112;18.418;2023-02-28T05:20:01;15.33;;;13.83;;
24259;SDS011;12384;48.112;18.418;2023-02-28T05:22:40;15.07;;;13.70;;
24259;SDS011;12384;48.112;18.418;2023-02-28T05:25:10;13.40;;;12.20;;
24259;SDS011;12384;48.112;18.418;2023-02-28T05:27:46;14.80;;;13.40;;
24259;SDS011;12384;48.112;18.418;2023-02-28T05:30:14;14.77;;;13.37;;
24259;SDS011;12384;48.112;18.418;2023-02-28T05:32:43;14.23;;;13.03;;
24259;SDS011;12384;48.112;18.418;2023-02-28T05:35:12;14.27;;;13.07;;
24259;SDS011;12384;48.112;18.418;2023-02-28T05:37:41;14.83;;;13.47;;
24259;SDS011;12384;48.112;18.418;2023-02-28T05:40:11;15.57;;;14.07;;
24259;SDS011;12384;48.112;18.418;2023-02-28T05:42:40;15.40;;;14.00;;
24259;SDS011;12384;48.112;18.418;2023-02-28T05:45:09;15.70;;;14.23;;
24259;SDS011;12384;48.112;18.418;2023-02-28T05:47:41;14.80;;;13.40;;
24259;SDS011;12384;48.112;18.418;2023-02-28T05:50:09;15.87;;;14.27;;
24259;SDS011;12384;48.112;18.418;2023-02-28T05:52:39;16.57;;;14.87;;
24259;SDS011;12384;48.112;18.418;2023-02-28T05:55:08;16.73;;;15.07;;
24259;SDS011;12384;48.112;18.418;2023-02-28T05:57:37;16.27;;;14.57;;
24259;SDS011;12384;48.112;18.418;2023-02-28T06:00:05;17.23;;;15.10;;
24259;SDS011;12384;48.112;18.418;2023-02-28T06:02:38;16.07;;;14.37;;
24259;SDS011;12384;48.112;18.418;2023-02-28T06:05:08;15.77;;;14.27;;
24259;SDS011;12384;48.112;18.418;2023-02-28T06:07:43;15.77;;;14.27;;
24259;SDS011;12384;48.112;18.418;2023-02-28T06:10:12;18.10;;;15.37;;
24259;SDS011;12384;48.112;18.418;2023-02-28T06:12:41;17.33;;;15.50;;
24259;SDS011;12384;48.112;18.418;2023-02-28T06:15:11;16.33;;;14.67;;
24259;SDS011;12384;48.112;18.418;2023-02-28T06:17:40;16.77;;;15.07;;
24259;SDS011;12384;48.112;18.418;2023-02-28T06:20:09;15.93;;;14.00;;
24259;SDS011;12384;48.112;18.418;2023-02-28T06:22:39;16.03;;;14.47;;
24259;SDS011;12384;48.112;18.418;2023-02-28T06:25:10;15.93;;;14.33;;
24259;SDS011;12384;48.112;18.418;2023-02-28T06:27:38;14.97;;;13.47;;
24259;SDS011;12384;48.112;18.418;2023-02-28T06:30:07;16.13;;;14.53;;
24259;SDS011;12384;48.112;18.418;2023-02-28T06:32:36;15.87;;;14.43;;
24259;SDS011;12384;48.112;18.418;2023-02-28T06:35:05;15.47;;;13.87;;
24259;SDS011;12384;48.112;18.418;2023-02-28T06:37:34;38.33;;;26.63;;
24259;SDS011;12384;48.112;18.418;2023-02-28T06:40:06;106.40;;;65.20;;
24259;SDS011;12384;48.112;18.418;2023-02-28T06:42:36;40.63;;;30.70;;
24259;SDS011;12384;48.112;18.418;2023-02-28T06:45:05;30.60;;;24.33;;
24259;SDS011;12384;48.112;18.418;2023-02-28T06:47:36;29.07;;;22.13;;
24259;SDS011;12384;48.112;18.418;2023-02-28T06:50:05;22.23;;;19.10;;
24259;SDS011;12384;48.112;18.418;2023-02-28T06:52:35;20.93;;;18.50;;
24259;SDS011;12384;48.112;18.418;2023-02-28T06:55:04;19.80;;;17.70;;
24259;SDS011;12384;48.112;18.418;2023-02-28T06:57:35;18.13;;;16.23;;
24259;SDS011;12384;48.112;18.418;2023-02-28T07:00:06;17.57;;;15.77;;
24259;SDS011;12384;48.112;18.418;2023-02-28T07:02:36;16.37;;;14.77;;
24259;SDS011;12384;48.112;18.418;2023-02-28T07:05:05;15.77;;;14.20;;
24259;SDS011;12384;48.112;18.418;2023-02-28T07:07:34;15.30;;;13.80;;
24259;SDS011;12384;48.112;18.418;2023-02-28T07:10:05;16.03;;;14.40;;
24259;SDS011;12384;48.112;18.418;2023-02-28T07:12:34;14.50;;;13.20;;
24259;SDS011;12384;48.112;18.418;2023-02-28T07:15:05;15.10;;;13.67;;
24259;SDS011;12384;48.112;18.418;2023-02-28T07:17:34;16.07;;;14.40;;
24259;SDS011;12384;48.112;18.418;2023-02-28T07:20:02;14.30;;;12.90;;
24259;SDS011;12384;48.112;18.418;2023-02-28T07:22:32;13.97;;;12.67;;
24259;SDS011;12384;48.112;18.418;2023-02-28T07:25:00;14.17;;;12.97;;
24259;SDS011;12384;48.112;18.418;2023-02-28T07:27:28;13.33;;;12.23;;
24259;SDS011;12384;48.112;18.418;2023-02-28T07:29:57;14.37;;;13.10;;
24259;SDS011;12384;48.112;18.418;2023-02-28T07:32:29;13.87;;;12.60;;
24259;SDS011;12384;48.112;18.418;2023-02-28T07:34:57;13.40;;;12.20;;
24259;SDS011;12384;48.112;18.418;2023-02-28T07:37:26;13.97;;;12.83;;
24259;SDS011;12384;48.112;18.418;2023-02-28T07:39:54;13.90;;;12.57;;
24259;SDS011;12384;48.112;18.418;2023-02-28T07:42:22;12.70;;;11.63;;
24259;SDS011;12384;48.112;18.418;2023-02-28T07:44:51;13.80;;;12.60;;
24259;SDS011;12384;48.112;18.418;2023-02-28T07:47:20;14.40;;;13.10;;
24259;SDS011;12384;48.112;18.418;2023-02-28T07:49:52;14.90;;;13.50;;
24259;SDS011;12384;48.112;18.418;2023-02-28T07:52:20;13.17;;;12.00;;
24259;SDS011;12384;48.112;18.418;2023-02-28T07:54:50;14.43;;;13.13;;
24259;SDS011;12384;48.112;18.418;2023-02-28T07:57:18;15.20;;;13.80;;
24259;SDS011;12384;48.112;18.418;2023-02-28T07:59:47;14.63;;;13.27;;
24259;SDS011;12384;48.112;18.418;2023-02-28T08:02:15;14.07;;;12.77;;
24259;SDS011;12384;48.112;18.418;2023-02-28T08:04:46;12.70;;;11.57;;
24259;SDS011;12384;48.112;18.418;2023-02-28T08:07:16;13.10;;;12.00;;
24259;SDS011;12384;48.112;18.418;2023-02-28T08:09:45;14.07;;;12.83;;
24259;SDS011;12384;48.112;18.418;2023-02-28T08:12:13;14.33;;;13.13;;
24259;SDS011;12384;48.112;18.418;2023-02-28T08:14:42;14.57;;;13.17;;
24259;SDS011;12384;48.112;18.418;2023-02-28T08:17:10;13.57;;;12.30;;
24259;SDS011;12384;48.112;18.418;2023-02-28T08:19:39;17.70;;;13.77;;
24259;SDS011;12384;48.112;18.418;2023-02-28T08:22:08;15.30;;;13.70;;
24259;SDS011;12384;48.112;18.418;2023-02-28T08:24:38;14.53;;;13.13;;
24259;SDS011;12384;48.112;18.418;2023-02-28T08:27:08;16.20;;;14.17;;
24259;SDS011;12384;48.112;18.418;2023-02-28T08:29:37;14.30;;;12.87;;
24259;SDS011;12384;48.112;18.418;2023-02-28T08:32:05;14.30;;;13.00;;
24259;SDS011;12384;48.112;18.418;2023-02-28T08:34:42;13.67;;;12.40;;
24259;SDS011;12384;48.112;18.418;2023-02-28T08:37:13;14.53;;;13.13;;
24259;SDS011;12384;48.112;18.418;2023-02-28T08:39:43;16.30;;;14.70;;
24259;SDS011;12384;48.112;18.418;2023-02-28T08:42:11;14.33;;;12.93;;
24259;SDS011;12384;48.112;18.418;2023-02-28T08:44:39;14.73;;;13.43;;
24259;SDS011;12384;48.112;18.418;2023-02-28T08:47:08;17.80;;;15.90;;
24259;SDS011;12384;48.112;18.418;2023-02-28T08:49:36;16.23;;;14.73;;
24259;SDS011;12384;48.112;18.418;2023-02-28T08:52:05;15.77;;;14.33;;
24259;SDS011;12384;48.112;18.418;2023-02-28T08:54:33;14.53;;;13.13;;
24259;SDS011;12384;48.112;18.418;2023-02-28T08:57:04;13.87;;;12.57;;
24259;SDS011;12384;48.112;18.418;2023-02-28T08:59:32;14.03;;;12.90;;
24259;SDS011;12384;48.112;18.418;2023-02-28T09:02:01;12.73;;;11.63;;
24259;SDS011;12384;48.112;18.418;2023-02-28T09:04:29;13.80;;;12.70;;
24259;SDS011;12384;48.112;18.418;2023-02-28T09:06:58;11.90;;;11.00;;
24259;SDS011;12384;48.112;18.418;2023-02-28T09:09:26;12.80;;;11.80;;
24259;SDS011;12384;48.112;18.418;2023-02-28T09:11:55;12.07;;;11.17;;
24259;SDS011;12384;48.112;18.418;2023-02-28T09:14:24;11.23;;;10.33;;
24259;SDS011;12384;48.112;18.418;2023-02-28T09:16:53;12.43;;;11.40;;
24259;SDS011;12384;48.112;18.418;2023-02-28T09:19:21;12.67;;;11.77;;
24259;SDS011;12384;48.112;18.418;2023-02-28T09:21:50;11.80;;;10.90;;
24259;SDS011;12384;48.112;18.418;2023-02-28T09:24:19;11.73;;;10.83;;
24259;SDS011;12384;48.112;18.418;2023-02-28T09:26:47;12.30;;;11.30;;
24259;SDS011;12384;48.112;18.418;2023-02-28T09:29:33;13.00;;;11.90;;
24259;SDS011;12384;48.112;18.418;2023-02-28T09:32:02;12.90;;;11.90;;
24259;SDS011;12384;48.112;18.418;2023-02-28T09:34:32;11.70;;;10.80;;
24259;SDS011;12384;48.112;18.418;2023-02-28T09:37:03;12.13;;;11.23;;
24259;SDS011;12384;48.112;18.418;2023-02-28T09:39:32;11.20;;;10.43;;
24259;SDS011;12384;48.112;18.418;2023-02-28T09:42:00;11.17;;;10.37;;
24259;SDS011;12384;48.112;18.418;2023-02-28T09:44:33;11.83;;;10.90;;
24259;SDS011;12384;48.112;18.418;2023-02-28T09:47:07;11.87;;;10.97;;
24259;SDS011;12384;48.112;18.418;2023-02-28T09:49:41;12.97;;;11.97;;
24259;SDS011;12384;48.112;18.418;2023-02-28T09:52:14;13.00;;;12.10;;
24259;SDS011;12384;48.112;18.418;2023-02-28T09:54:46;12.47;;;11.57;;
24259;SDS011;12384;48.112;18.418;2023-02-28T09:57:16;12.33;;;11.47;;
24259;SDS011;12384;48.112;18.418;2023-02-28T10:02:48;12.50;;;11.60;;
24259;SDS011;12384;48.112;18.418;2023-02-28T10:05:25;13.30;;;12.20;;
24259;SDS011;12384;48.112;18.418;2023-02-28T10:08:02;13.13;;;12.13;;
24259;SDS011;12384;48.112;18.418;2023-02-28T10:10:37;12.57;;;11.67;;
24259;SDS011;12384;48.112;18.418;2023-02-28T10:15:58;12.80;;;11.90;;
24259;SDS011;12384;48.112;18.418;2023-02-28T10:18:30;12.50;;;11.60;;
24259;SDS011;12384;48.112;18.418;2023-02-28T10:21:08;12.03;;;11.03;;
24259;SDS011;12384;48.112;18.418;2023-02-28T10:23:42;12.60;;;11.70;;
24259;SDS011;12384;48.112;18.418;2023-02-28T10:26:14;11.90;;;11.00;;
24259;SDS011;12384;48.112;18.418;2023-02-28T10:28:45;12.00;;;11.10;;
24259;SDS011;12384;48.112;18.418;2023-02-28T10:31:17;12.37;;;11.47;;
24259;SDS011;12384;48.112;18.418;2023-02-28T10:33:49;13.90;;;12.80;;
24259;SDS011;12384;48.112;18.418;2023-02-28T10:36:18;13.60;;;12.30;;
24259;SDS011;12384;48.112;18.418;2023-02-28T10:38:48;14.20;;;13.03;;
24259;SDS011;12384;48.112;18.418;2023-02-28T10:41:26;12.67;;;11.53;;
24259;SDS011;12384;48.112;18.418;2023-02-28T10:44:12;13.03;;;11.93;;
24259;SDS011;12384;48.112;18.418;2023-02-28T10:46:46;12.27;;;11.27;;
24259;SDS011;12384;48.112;18.418;2023-02-28T10:49:17;11.93;;;11.03;;
24259;SDS011;12384;48.112;18.418;2023-02-28T10:51:48;11.60;;;10.60;;
24259;SDS011;12384;48.112;18.418;2023-02-28T10:54:22;11.50;;;10.70;;
24259;SDS011;12384;48.112;18.418;2023-02-28T10:57:08;11.90;;;11.07;;
24259;SDS011;12384;48.112;18.418;2023-02-28T10:59:45;11.93;;;10.93;;
24259;SDS011;12384;48.112;18.418;2023-02-28T11:08:05;11.03;;;10.13;;
24259;SDS011;12384;48.112;18.418;2023-02-28T11:10:44;10.97;;;10.10;;
24259;SDS011;12384;48.112;18.418;2023-02-28T11:13:16;12.70;;;11.73;;
24259;SDS011;12384;48.112;18.418;2023-02-28T11:15:49;12.67;;;11.63;;
24259;SDS011;12384;48.112;18.418;2023-02-28T11:18:23;12.20;;;11.30;;
24259;SDS011;12384;48.112;18.418;2023-02-28T11:20:57;11.37;;;10.57;;
24259;SDS011;12384;48.112;18.418;2023-02-28T11:23:28;11.73;;;10.83;;
24259;SDS011;12384;48.112;18.418;2023-02-28T11:26:04;11.30;;;10.60;;
24259;SDS011;12384;48.112;18.418;2023-02-28T11:28:37;11.70;;;10.80;;
24259;SDS011;12384;48.112;18.418;2023-02-28T11:31:17;12.50;;;11.50;;
24259;SDS011;12384;48.112;18.418;2023-02-28T11:33:51;12.20;;;11.20;;
24259;SDS011;12384;48.112;18.418;2023-02-28T11:36:23;11.67;;;10.77;;
24259;SDS011;12384;48.112;18.418;2023-02-28T11:38:54;12.07;;;11.17;;
24259;SDS011;12384;48.112;18.418;2023-02-28T11:41:30;11.20;;;10.40;;
24259;SDS011;12384;48.112;18.418;2023-02-28T11:44:13;10.70;;;9.90;;
24259;SDS011;12384;48.112;18.418;2023-02-28T11:46:56;12.33;;;11.43;;
24259;SDS011;12384;48.112;18.418;2023-02-28T11:49:35;11.50;;;10.60;;
24259;SDS011;12384;48.112;18.418;2023-02-28T11:52:20;11.80;;;10.90;;
24259;SDS011;12384;48.112;18.418;2023-02-28T11:55:05;11.67;;;10.77;;
24259;SDS011;12384;48.112;18.418;2023-02-28T11:57:48;12.07;;;11.27;;
24259;SDS011;12384;48.112;18.418;2023-02-28T12:00:34;12.00;;;11.10;;
24259;SDS011;12384;48.112;18.418;2023-02-28T12:03:12;11.47;;;10.57;;
24259;SDS011;12384;48.112;18.418;2023-02-28T12:05:53;13.20;;;12.20;;
24259;SDS011;12384;48.112;18.418;2023-02-28T12:08:35;12.50;;;11.60;;
24259;SDS011;12384;48.112;18.418;2023-02-28T12:11:16;14.17;;;13.07;;
24259;SDS011;12384;48.112;18.418;2023-02-28T12:13:58;14.70;;;13.60;;
24259;SDS011;12384;48.112;18.418;2023-02-28T12:16:56;13.60;;;12.60;;
24259;SDS011;12384;48.112;18.418;2023-02-28T12:19:32;13.30;;;12.30;;
24259;SDS011;12384;48.112;18.418;2023-02-28T12:22:15;13.30;;;12.20;;
24259;SDS011;12384;48.112;18.418;2023-02-28T12:24:59;13.13;;;12.13;;
24259;SDS011;12384;48.112;18.418;2023-02-28T12:27:46;13.73;;;12.63;;
24259;SDS011;12384;48.112;18.418;2023-02-28T12:30:17;13.70;;;12.70;;
24259;SDS011;12384;48.112;18.418;2023-02-28T12:32:51;12.93;;;11.83;;
24259;SDS011;12384;48.112;18.418;2023-02-28T12:35:24;13.80;;;12.60;;
24259;SDS011;12384;48.112;18.418;2023-02-28T12:37:59;12.47;;;11.57;;
24259;SDS011;12384;48.112;18.418;2023-02-28T12:40:33;12.47;;;11.47;;
24259;SDS011;12384;48.112;18.418;2023-02-28T12:43:11;12.47;;;11.53;;
24259;SDS011;12384;48.112;18.418;2023-02-28T12:45:44;15.00;;;13.73;;
24259;SDS011;12384;48.112;18.418;2023-02-28T12:48:18;14.57;;;13.37;;
24259;SDS011;12384;48.112;18.418;2023-02-28T12:50:52;12.50;;;11.60;;
24259;SDS011;12384;48.112;18.418;2023-02-28T12:53:25;12.20;;;11.30;;
24259;SDS011;12384;48.112;18.418;2023-02-28T12:56:02;13.98;;;12.88;;
24259;SDS011;12384;48.112;18.418;2023-02-28T12:58:38;19.23;;;17.50;;
24259;SDS011;12384;48.112;18.418;2023-02-28T13:01:15;27.30;;;24.75;;
24259;SDS011;12384;48.112;18.418;2023-02-28T13:04:19;16.75;;;15.35;;
24259;SDS011;12384;48.112;18.418;2023-02-28T13:07:27;13.30;;;12.32;;
24259;SDS011;12384;48.112;18.418;2023-02-28T13:10:19;12.73;;;11.82;;
24259;SDS011;12384;48.112;18.418;2023-02-28T13:12:48;13.40;;;12.30;;
24259;SDS011;12384;48.112;18.418;2023-02-28T13:15:19;12.80;;;11.80;;
24259;SDS011;12384;48.112;18.418;2023-02-28T13:17:51;13.18;;;12.27;;
24259;SDS011;12384;48.112;18.418;2023-02-28T13:20:23;12.25;;;11.35;;
24259;SDS011;12384;48.112;18.418;2023-02-28T13:22:53;12.13;;;11.30;;
24259;SDS011;12384;48.112;18.418;2023-02-28T13:34:40;17.13;;;15.43;;
24259;SDS011;12384;48.112;18.418;2023-02-28T13:37:34;15.18;;;13.88;;
24259;SDS011;12384;48.112;18.418;2023-02-28T13:40:31;13.57;;;12.57;;
24259;SDS011;12384;48.112;18.418;2023-02-28T13:43:08;13.87;;;12.77;;
24259;SDS011;12384;48.112;18.418;2023-02-28T13:45:37;13.15;;;12.25;;
24259;SDS011;12384;48.112;18.418;2023-02-28T13:48:15;12.63;;;11.73;;
24259;SDS011;12384;48.112;18.418;2023-02-28T13:50:45;13.25;;;12.45;;
24259;SDS011;12384;48.112;18.418;2023-02-28T13:56:19;13.35;;;12.35;;
24259;SDS011;12384;48.112;18.418;2023-02-28T13:58:57;12.05;;;11.25;;
24259;SDS011;12384;48.112;18.418;2023-02-28T14:07:42;12.60;;;11.80;;
24259;SDS011;12384;48.112;18.418;2023-02-28T14:10:24;13.75;;;12.75;;
24259;SDS011;12384;48.112;18.418;2023-02-28T14:12:57;13.67;;;12.47;;
24259;SDS011;12384;48.112;18.418;2023-02-28T14:15:41;13.20;;;12.30;;
24259;SDS011;12384;48.112;18.418;2023-02-28T14:18:15;13.67;;;12.70;;
24259;SDS011;12384;48.112;18.418;2023-02-28T14:20:54;13.27;;;12.37;;
24259;SDS011;12384;48.112;18.418;2023-02-28T14:23:48;13.87;;;12.90;;
24259;SDS011;12384;48.112;18.418;2023-02-28T14:29:50;12.23;;;11.43;;
24259;SDS011;12384;48.112;18.418;2023-02-28T14:32:49;12.83;;;11.83;;
24259;SDS011;12384;48.112;18.418;2023-02-28T14:35:36;12.40;;;11.60;;
24259;SDS011;12384;48.112;18.418;2023-02-28T14:38:14;12.00;;;11.20;;
24259;SDS011;12384;48.112;18.418;2023-02-28T14:40:47;13.00;;;12.00;;
24259;SDS011;12384;48.112;18.418;2023-02-28T14:43:20;13.50;;;12.50;;
24259;SDS011;12384;48.112;18.418;2023-02-28T14:45:50;12.90;;;12.00;;
24259;SDS011;12384;48.112;18.418;2023-02-28T14:48:22;12.93;;;12.03;;
24259;SDS011;12384;48.112;18.418;2023-02-28T14:50:53;14.57;;;13.57;;
24259;SDS011;12384;48.112;18.418;2023-02-28T14:53:25;13.87;;;12.77;;
24259;SDS011;12384;48.112;18.418;2023-02-28T14:55:55;13.50;;;12.50;;
24259;SDS011;12384;48.112;18.418;2023-02-28T14:58:25;12.90;;;12.00;;
24259;SDS011;12384;48.112;18.418;2023-02-28T15:00:55;13.63;;;12.63;;
24259;SDS011;12384;48.112;18.418;2023-02-28T15:03:29;13.23;;;12.33;;
24259;SDS011;12384;48.112;18.418;2023-02-28T15:06:00;14.10;;;13.10;;
24259;SDS011;12384;48.112;18.418;2023-02-28T15:08:30;13.43;;;12.40;;
24259;SDS011;12384;48.112;18.418;2023-02-28T15:11:04;13.00;;;11.97;;
24259;SDS011;12384;48.112;18.418;2023-02-28T15:13:36;13.40;;;12.30;;
24259;SDS011;12384;48.112;18.418;2023-02-28T15:16:08;13.90;;;12.80;;
24259;SDS011;12384;48.112;18.418;2023-02-28T15:18:44;13.10;;;12.00;;
24259;SDS011;12384;48.112;18.418;2023-02-28T15:21:19;12.00;;;11.20;;
24259;SDS011;12384;48.112;18.418;2023-02-28T15:23:50;12.80;;;11.80;;